Pomona, Illinois
Current Conditions -  °F | °C
As of 4:52 AM on Friday 24 Oct 2014 (Local Time) from KMDH Reporting Station
Overcast Overcast  
Wind Chill:   Ceiling: 2800
Heat Index:   Visibility: 10mi
Dew Point:   Wind: 3mph
Humidity: 90%   Direction: 210°SSW
Pressure: 30.11"   Gusts: NA
Location:  37.63°N, 89.34°W
Report Text: KMDH 240952Z AUTO 21003KT 10SM BKN028 BKN037 OVC043 09/08 A3011 RMK AO2 SLP197 T00940078
Loading
Personal Weather Stations






























Interactive Weather Map
Tropical Storm Tracking
New forecast layout! Learn more

10-Day Weather Forecast

Advertisements
Track Severe Weather on mobile